sensor_id;sensor_type;location;lat;lon;timestamp;P1;durP1;ratioP1;P2;durP2;ratioP2
68921;SDS011;55959;51.244;5.724;2023-06-14T00:02:09;6.88;;;4.93;;
68921;SDS011;55959;51.244;5.724;2023-06-14T00:04:35;5.20;;;4.38;;
68921;SDS011;55959;51.244;5.724;2023-06-14T00:07:02;5.13;;;4.40;;
68921;SDS011;55959;51.244;5.724;2023-06-14T00:09:28;5.72;;;4.30;;
68921;SDS011;55959;51.244;5.724;2023-06-14T00:11:54;6.57;;;4.90;;
68921;SDS011;55959;51.244;5.724;2023-06-14T00:14:20;4.97;;;4.45;;
68921;SDS011;55959;51.244;5.724;2023-06-14T00:16:45;4.40;;;4.00;;
68921;SDS011;55959;51.244;5.724;2023-06-14T00:19:12;5.05;;;4.65;;
68921;SDS011;55959;51.244;5.724;2023-06-14T00:21:38;5.03;;;4.63;;
68921;SDS011;55959;51.244;5.724;2023-06-14T00:24:04;6.40;;;4.82;;
68921;SDS011;55959;51.244;5.724;2023-06-14T00:26:30;4.78;;;4.32;;
68921;SDS011;55959;51.244;5.724;2023-06-14T00:28:56;5.30;;;4.80;;
68921;SDS011;55959;51.244;5.724;2023-06-14T00:31:22;5.70;;;5.10;;
68921;SDS011;55959;51.244;5.724;2023-06-14T00:33:48;5.00;;;4.28;;
68921;SDS011;55959;51.244;5.724;2023-06-14T00:36:14;5.50;;;4.40;;
68921;SDS011;55959;51.244;5.724;2023-06-14T00:38:39;4.95;;;4.40;;
68921;SDS011;55959;51.244;5.724;2023-06-14T00:41:05;4.75;;;4.30;;
68921;SDS011;55959;51.244;5.724;2023-06-14T00:43:31;5.10;;;4.45;;
68921;SDS011;55959;51.244;5.724;2023-06-14T00:45:57;5.20;;;4.80;;
68921;SDS011;55959;51.244;5.724;2023-06-14T00:48:23;5.95;;;5.15;;
68921;SDS011;55959;51.244;5.724;2023-06-14T00:50:49;5.03;;;4.43;;
68921;SDS011;55959;51.244;5.724;2023-06-14T00:53:17;4.85;;;4.45;;
68921;SDS011;55959;51.244;5.724;2023-06-14T00:55:45;4.90;;;4.43;;
68921;SDS011;55959;51.244;5.724;2023-06-14T00:58:12;5.10;;;4.43;;
68921;SDS011;55959;51.244;5.724;2023-06-14T01:00:38;5.72;;;4.60;;
68921;SDS011;55959;51.244;5.724;2023-06-14T01:03:04;6.47;;;4.78;;
68921;SDS011;55959;51.244;5.724;2023-06-14T01:05:30;4.97;;;4.57;;
68921;SDS011;55959;51.244;5.724;2023-06-14T01:08:01;5.05;;;4.63;;
68921;SDS011;55959;51.244;5.724;2023-06-14T01:13:35;5.28;;;4.63;;
68921;SDS011;55959;51.244;5.724;2023-06-14T01:16:04;4.85;;;4.35;;
68921;SDS011;55959;51.244;5.724;2023-06-14T01:18:32;4.43;;;4.03;;
68921;SDS011;55959;51.244;5.724;2023-06-14T01:20:58;4.50;;;4.10;;
68921;SDS011;55959;51.244;5.724;2023-06-14T01:23:25;5.10;;;4.68;;
68921;SDS011;55959;51.244;5.724;2023-06-14T01:25:57;4.90;;;4.32;;
68921;SDS011;55959;51.244;5.724;2023-06-14T01:28:22;4.95;;;4.55;;
68921;SDS011;55959;51.244;5.724;2023-06-14T01:30:52;5.25;;;4.47;;
68921;SDS011;55959;51.244;5.724;2023-06-14T01:33:23;5.13;;;4.13;;
68921;SDS011;55959;51.244;5.724;2023-06-14T01:35:53;4.57;;;4.15;;
68921;SDS011;55959;51.244;5.724;2023-06-14T01:38:21;4.72;;;4.22;;
68921;SDS011;55959;51.244;5.724;2023-06-14T01:40:50;5.85;;;4.25;;
68921;SDS011;55959;51.244;5.724;2023-06-14T01:43:19;5.30;;;4.15;;
68921;SDS011;55959;51.244;5.724;2023-06-14T01:45:46;4.82;;;4.43;;
68921;SDS011;55959;51.244;5.724;2023-06-14T01:48:14;5.38;;;4.70;;
68921;SDS011;55959;51.244;5.724;2023-06-14T01:50:40;5.65;;;5.13;;
68921;SDS011;55959;51.244;5.724;2023-06-14T01:53:07;5.57;;;4.85;;
68921;SDS011;55959;51.244;5.724;2023-06-14T01:55:33;6.38;;;4.38;;
68921;SDS011;55959;51.244;5.724;2023-06-14T01:58:03;5.10;;;4.60;;
68921;SDS011;55959;51.244;5.724;2023-06-14T02:00:29;5.00;;;4.45;;
68921;SDS011;55959;51.244;5.724;2023-06-14T02:02:55;8.27;;;4.75;;
68921;SDS011;55959;51.244;5.724;2023-06-14T02:05:21;5.85;;;5.15;;
68921;SDS011;55959;51.244;5.724;2023-06-14T02:07:49;5.22;;;4.72;;
68921;SDS011;55959;51.244;5.724;2023-06-14T02:10:15;5.07;;;4.63;;
68921;SDS011;55959;51.244;5.724;2023-06-14T02:12:42;5.45;;;4.95;;
68921;SDS011;55959;51.244;5.724;2023-06-14T02:15:09;5.25;;;4.68;;
68921;SDS011;55959;51.244;5.724;2023-06-14T02:17:41;5.03;;;4.53;;
68921;SDS011;55959;51.244;5.724;2023-06-14T02:20:12;5.43;;;4.93;;
68921;SDS011;55959;51.244;5.724;2023-06-14T02:22:38;4.90;;;4.50;;
68921;SDS011;55959;51.244;5.724;2023-06-14T02:25:04;5.40;;;4.90;;
68921;SDS011;55959;51.244;5.724;2023-06-14T02:27:31;4.85;;;4.45;;
68921;SDS011;55959;51.244;5.724;2023-06-14T02:29:57;6.28;;;4.82;;
68921;SDS011;55959;51.244;5.724;2023-06-14T02:32:23;5.53;;;4.95;;
68921;SDS011;55959;51.244;5.724;2023-06-14T02:34:48;5.05;;;4.65;;
68921;SDS011;55959;51.244;5.724;2023-06-14T02:37:14;5.72;;;5.13;;
68921;SDS011;55959;51.244;5.724;2023-06-14T02:39:41;4.85;;;4.45;;
68921;SDS011;55959;51.244;5.724;2023-06-14T02:42:07;5.05;;;4.65;;
68921;SDS011;55959;51.244;5.724;2023-06-14T02:44:33;5.18;;;4.70;;
68921;SDS011;55959;51.244;5.724;2023-06-14T02:46:58;4.90;;;4.30;;
68921;SDS011;55959;51.244;5.724;2023-06-14T02:49:25;5.35;;;4.85;;
68921;SDS011;55959;51.244;5.724;2023-06-14T02:51:51;4.90;;;4.40;;
68921;SDS011;55959;51.244;5.724;2023-06-14T02:54:17;5.10;;;4.60;;
68921;SDS011;55959;51.244;5.724;2023-06-14T02:56:43;6.18;;;4.75;;
68921;SDS011;55959;51.244;5.724;2023-06-14T02:59:09;4.78;;;4.38;;
68921;SDS011;55959;51.244;5.724;2023-06-14T03:01:35;5.85;;;4.60;;
68921;SDS011;55959;51.244;5.724;2023-06-14T03:04:06;5.03;;;4.40;;
68921;SDS011;55959;51.244;5.724;2023-06-14T03:06:35;5.53;;;4.90;;
68921;SDS011;55959;51.244;5.724;2023-06-14T03:09:01;5.38;;;4.88;;
68921;SDS011;55959;51.244;5.724;2023-06-14T03:11:30;5.10;;;4.10;;
68921;SDS011;55959;51.244;5.724;2023-06-14T03:13:56;5.28;;;4.25;;
68921;SDS011;55959;51.244;5.724;2023-06-14T03:16:22;5.82;;;4.63;;
68921;SDS011;55959;51.244;5.724;2023-06-14T03:18:52;5.47;;;4.70;;
68921;SDS011;55959;51.244;5.724;2023-06-14T03:21:18;4.78;;;4.38;;
68921;SDS011;55959;51.244;5.724;2023-06-14T03:23:45;5.05;;;4.50;;
68921;SDS011;55959;51.244;5.724;2023-06-14T03:26:12;5.43;;;4.90;;
68921;SDS011;55959;51.244;5.724;2023-06-14T03:28:39;6.18;;;4.72;;
68921;SDS011;55959;51.244;5.724;2023-06-14T03:31:05;5.18;;;4.75;;
68921;SDS011;55959;51.244;5.724;2023-06-14T03:33:31;4.70;;;4.30;;
68921;SDS011;55959;51.244;5.724;2023-06-14T03:35:57;5.10;;;4.70;;
68921;SDS011;55959;51.244;5.724;2023-06-14T03:38:23;6.38;;;5.07;;
68921;SDS011;55959;51.244;5.724;2023-06-14T03:40:48;5.57;;;5.07;;
68921;SDS011;55959;51.244;5.724;2023-06-14T03:43:14;5.47;;;5.05;;
68921;SDS011;55959;51.244;5.724;2023-06-14T03:45:40;5.65;;;5.05;;
68921;SDS011;55959;51.244;5.724;2023-06-14T03:48:06;4.57;;;4.18;;
68921;SDS011;55959;51.244;5.724;2023-06-14T03:50:33;5.90;;;4.82;;
68921;SDS011;55959;51.244;5.724;2023-06-14T03:52:59;5.40;;;4.57;;
68921;SDS011;55959;51.244;5.724;2023-06-14T03:55:26;5.70;;;4.85;;
68921;SDS011;55959;51.244;5.724;2023-06-14T03:57:52;5.80;;;5.28;;
68921;SDS011;55959;51.244;5.724;2023-06-14T04:00:18;5.45;;;4.95;;
68921;SDS011;55959;51.244;5.724;2023-06-14T04:02:45;5.60;;;4.90;;
68921;SDS011;55959;51.244;5.724;2023-06-14T04:05:11;5.82;;;4.68;;
68921;SDS011;55959;51.244;5.724;2023-06-14T04:07:37;6.95;;;5.10;;
68921;SDS011;55959;51.244;5.724;2023-06-14T04:10:05;4.60;;;4.20;;
68921;SDS011;55959;51.244;5.724;2023-06-14T04:12:33;5.30;;;4.80;;
68921;SDS011;55959;51.244;5.724;2023-06-14T04:14:59;5.50;;;5.00;;
68921;SDS011;55959;51.244;5.724;2023-06-14T04:17:26;4.95;;;4.55;;
68921;SDS011;55959;51.244;5.724;2023-06-14T04:19:52;5.55;;;4.97;;
68921;SDS011;55959;51.244;5.724;2023-06-14T04:22:18;6.78;;;4.85;;
68921;SDS011;55959;51.244;5.724;2023-06-14T04:24:44;5.00;;;4.60;;
68921;SDS011;55959;51.244;5.724;2023-06-14T04:27:11;6.38;;;4.90;;
68921;SDS011;55959;51.244;5.724;2023-06-14T04:29:36;5.38;;;4.85;;
68921;SDS011;55959;51.244;5.724;2023-06-14T04:32:04;4.97;;;4.57;;
68921;SDS011;55959;51.244;5.724;2023-06-14T04:34:31;5.53;;;5.00;;
68921;SDS011;55959;51.244;5.724;2023-06-14T04:36:59;5.07;;;4.57;;
68921;SDS011;55959;51.244;5.724;2023-06-14T04:39:26;5.43;;;4.85;;
68921;SDS011;55959;51.244;5.724;2023-06-14T04:41:52;5.07;;;4.57;;
68921;SDS011;55959;51.244;5.724;2023-06-14T04:44:22;5.53;;;5.03;;
68921;SDS011;55959;51.244;5.724;2023-06-14T04:46:55;4.63;;;4.22;;
68921;SDS011;55959;51.244;5.724;2023-06-14T04:49:23;5.03;;;4.43;;
68921;SDS011;55959;51.244;5.724;2023-06-14T04:51:49;5.57;;;4.65;;
68921;SDS011;55959;51.244;5.724;2023-06-14T04:54:22;4.70;;;4.30;;
68921;SDS011;55959;51.244;5.724;2023-06-14T04:56:50;5.35;;;4.72;;
68921;SDS011;55959;51.244;5.724;2023-06-14T04:59:16;4.63;;;4.13;;
68921;SDS011;55959;51.244;5.724;2023-06-14T05:01:42;4.57;;;4.10;;
68921;SDS011;55959;51.244;5.724;2023-06-14T05:04:15;5.53;;;4.40;;
68921;SDS011;55959;51.244;5.724;2023-06-14T05:06:42;4.28;;;3.88;;
68921;SDS011;55959;51.244;5.724;2023-06-14T05:09:10;4.13;;;3.72;;
68921;SDS011;55959;51.244;5.724;2023-06-14T05:11:37;4.05;;;3.75;;
68921;SDS011;55959;51.244;5.724;2023-06-14T05:14:03;3.58;;;3.33;;
68921;SDS011;55959;51.244;5.724;2023-06-14T05:16:28;4.30;;;3.47;;
68921;SDS011;55959;51.244;5.724;2023-06-14T05:18:55;4.00;;;3.70;;
68921;SDS011;55959;51.244;5.724;2023-06-14T05:21:21;4.50;;;3.83;;
68921;SDS011;55959;51.244;5.724;2023-06-14T05:23:47;4.07;;;3.72;;
68921;SDS011;55959;51.244;5.724;2023-06-14T05:26:13;5.47;;;3.60;;
68921;SDS011;55959;51.244;5.724;2023-06-14T05:28:39;4.43;;;3.95;;
68921;SDS011;55959;51.244;5.724;2023-06-14T05:31:04;4.03;;;3.72;;
68921;SDS011;55959;51.244;5.724;2023-06-14T05:33:30;4.15;;;3.40;;
68921;SDS011;55959;51.244;5.724;2023-06-14T05:35:56;4.05;;;3.65;;
68921;SDS011;55959;51.244;5.724;2023-06-14T05:38:22;4.10;;;3.70;;
68921;SDS011;55959;51.244;5.724;2023-06-14T05:40:47;3.80;;;3.50;;
68921;SDS011;55959;51.244;5.724;2023-06-14T05:43:14;5.25;;;3.63;;
68921;SDS011;55959;51.244;5.724;2023-06-14T05:45:40;4.32;;;3.72;;
68921;SDS011;55959;51.244;5.724;2023-06-14T05:48:05;3.95;;;3.00;;
68921;SDS011;55959;51.244;5.724;2023-06-14T05:50:31;3.60;;;3.30;;
68921;SDS011;55959;51.244;5.724;2023-06-14T05:52:57;4.50;;;3.60;;
68921;SDS011;55959;51.244;5.724;2023-06-14T05:55:23;5.68;;;3.90;;
68921;SDS011;55959;51.244;5.724;2023-06-14T05:57:48;6.20;;;4.47;;
68921;SDS011;55959;51.244;5.724;2023-06-14T06:00:14;5.30;;;4.80;;
68921;SDS011;55959;51.244;5.724;2023-06-14T06:02:41;4.22;;;3.75;;
68921;SDS011;55959;51.244;5.724;2023-06-14T06:05:08;5.03;;;4.53;;
68921;SDS011;55959;51.244;5.724;2023-06-14T06:07:37;5.32;;;4.30;;
68921;SDS011;55959;51.244;5.724;2023-06-14T06:10:05;3.58;;;3.28;;
68921;SDS011;55959;51.244;5.724;2023-06-14T06:12:31;4.15;;;3.75;;
68921;SDS011;55959;51.244;5.724;2023-06-14T06:14:58;4.63;;;3.60;;
68921;SDS011;55959;51.244;5.724;2023-06-14T06:17:25;3.75;;;3.45;;
68921;SDS011;55959;51.244;5.724;2023-06-14T06:19:51;3.85;;;3.42;;
68921;SDS011;55959;51.244;5.724;2023-06-14T06:22:17;4.70;;;3.53;;
68921;SDS011;55959;51.244;5.724;2023-06-14T06:24:42;4.32;;;3.33;;
68921;SDS011;55959;51.244;5.724;2023-06-14T06:27:08;4.85;;;3.78;;
68921;SDS011;55959;51.244;5.724;2023-06-14T06:29:34;3.95;;;3.47;;
68921;SDS011;55959;51.244;5.724;2023-06-14T06:32:01;5.65;;;3.63;;
68921;SDS011;55959;51.244;5.724;2023-06-14T06:34:27;3.78;;;3.28;;
68921;SDS011;55959;51.244;5.724;2023-06-14T06:36:53;3.50;;;3.20;;
68921;SDS011;55959;51.244;5.724;2023-06-14T06:39:20;3.40;;;3.03;;
68921;SDS011;55959;51.244;5.724;2023-06-14T06:41:46;4.10;;;3.25;;
68921;SDS011;55959;51.244;5.724;2023-06-14T06:44:11;3.38;;;3.08;;
68921;SDS011;55959;51.244;5.724;2023-06-14T06:46:37;3.20;;;2.90;;
68921;SDS011;55959;51.244;5.724;2023-06-14T06:49:05;3.90;;;3.40;;
68921;SDS011;55959;51.244;5.724;2023-06-14T06:51:35;4.28;;;2.92;;
68921;SDS011;55959;51.244;5.724;2023-06-14T06:54:02;4.70;;;3.17;;
68921;SDS011;55959;51.244;5.724;2023-06-14T06:56:28;4.43;;;3.15;;
68921;SDS011;55959;51.244;5.724;2023-06-14T06:58:53;3.30;;;3.00;;
68921;SDS011;55959;51.244;5.724;2023-06-14T07:01:19;3.42;;;2.85;;
68921;SDS011;55959;51.244;5.724;2023-06-14T07:03:45;3.97;;;3.33;;
68921;SDS011;55959;51.244;5.724;2023-06-14T07:06:11;3.90;;;2.85;;
68921;SDS011;55959;51.244;5.724;2023-06-14T07:08:37;2.72;;;2.50;;
68921;SDS011;55959;51.244;5.724;2023-06-14T07:11:03;3.10;;;2.47;;
68921;SDS011;55959;51.244;5.724;2023-06-14T07:13:30;4.00;;;3.10;;
68921;SDS011;55959;51.244;5.724;2023-06-14T07:16:00;4.03;;;3.20;;
68921;SDS011;55959;51.244;5.724;2023-06-14T07:18:26;2.92;;;2.60;;
68921;SDS011;55959;51.244;5.724;2023-06-14T07:20:52;3.20;;;2.90;;
68921;SDS011;55959;51.244;5.724;2023-06-14T07:23:19;3.55;;;3.05;;
68921;SDS011;55959;51.244;5.724;2023-06-14T07:25:45;3.50;;;2.97;;
68921;SDS011;55959;51.244;5.724;2023-06-14T07:28:11;3.20;;;2.90;;
68921;SDS011;55959;51.244;5.724;2023-06-14T07:30:37;3.42;;;3.00;;
68921;SDS011;55959;51.244;5.724;2023-06-14T07:33:02;4.28;;;3.13;;
68921;SDS011;55959;51.244;5.724;2023-06-14T07:35:28;3.55;;;3.20;;
68921;SDS011;55959;51.244;5.724;2023-06-14T07:37:54;3.35;;;3.05;;
68921;SDS011;55959;51.244;5.724;2023-06-14T07:40:20;3.40;;;2.63;;
68921;SDS011;55959;51.244;5.724;2023-06-14T07:42:46;3.08;;;2.78;;
68921;SDS011;55959;51.244;5.724;2023-06-14T07:45:13;3.90;;;3.28;;
68921;SDS011;55959;51.244;5.724;2023-06-14T07:47:39;3.35;;;2.80;;
68921;SDS011;55959;51.244;5.724;2023-06-14T07:50:05;2.58;;;2.38;;
68921;SDS011;55959;51.244;5.724;2023-06-14T07:52:31;4.13;;;2.60;;
68921;SDS011;55959;51.244;5.724;2023-06-14T07:54:57;2.90;;;2.60;;
68921;SDS011;55959;51.244;5.724;2023-06-14T07:57:23;5.18;;;2.78;;
68921;SDS011;55959;51.244;5.724;2023-06-14T07:59:49;3.33;;;2.55;;
68921;SDS011;55959;51.244;5.724;2023-06-14T08:02:15;3.22;;;2.92;;
68921;SDS011;55959;51.244;5.724;2023-06-14T08:04:41;2.70;;;2.50;;
68921;SDS011;55959;51.244;5.724;2023-06-14T08:07:07;3.70;;;3.28;;
68921;SDS011;55959;51.244;5.724;2023-06-14T08:09:33;2.85;;;2.42;;
68921;SDS011;55959;51.244;5.724;2023-06-14T08:12:02;2.53;;;2.30;;
68921;SDS011;55959;51.244;5.724;2023-06-14T08:14:33;2.05;;;1.85;;
68921;SDS011;55959;51.244;5.724;2023-06-14T08:16:59;2.15;;;1.95;;
68921;SDS011;55959;51.244;5.724;2023-06-14T08:19:25;2.47;;;2.05;;
68921;SDS011;55959;51.244;5.724;2023-06-14T08:21:50;2.40;;;2.20;;
68921;SDS011;55959;51.244;5.724;2023-06-14T08:24:16;2.20;;;2.00;;
68921;SDS011;55959;51.244;5.724;2023-06-14T08:26:43;3.60;;;2.15;;
68921;SDS011;55959;51.244;5.724;2023-06-14T08:29:09;2.00;;;1.80;;
68921;SDS011;55959;51.244;5.724;2023-06-14T08:31:35;2.55;;;1.90;;
68921;SDS011;55959;51.244;5.724;2023-06-14T08:34:01;2.67;;;1.60;;
68921;SDS011;55959;51.244;5.724;2023-06-14T08:36:27;1.80;;;1.70;;
68921;SDS011;55959;51.244;5.724;2023-06-14T08:38:52;2.13;;;1.92;;
68921;SDS011;55959;51.244;5.724;2023-06-14T08:41:20;2.75;;;1.65;;
68921;SDS011;55959;51.244;5.724;2023-06-14T08:43:50;2.92;;;2.30;;
68921;SDS011;55959;51.244;5.724;2023-06-14T08:46:17;2.40;;;2.20;;
68921;SDS011;55959;51.244;5.724;2023-06-14T08:48:50;2.20;;;2.00;;
68921;SDS011;55959;51.244;5.724;2023-06-14T08:51:20;2.90;;;2.20;;
68921;SDS011;55959;51.244;5.724;2023-06-14T08:53:57;2.10;;;1.90;;
68921;SDS011;55959;51.244;5.724;2023-06-14T08:56:26;2.30;;;2.00;;
68921;SDS011;55959;51.244;5.724;2023-06-14T08:58:54;2.35;;;1.80;;
68921;SDS011;55959;51.244;5.724;2023-06-14T09:01:21;2.13;;;1.90;;
68921;SDS011;55959;51.244;5.724;2023-06-14T09:03:48;2.65;;;1.65;;
68921;SDS011;55959;51.244;5.724;2023-06-14T09:06:15;4.22;;;1.85;;
68921;SDS011;55959;51.244;5.724;2023-06-14T09:08:44;2.33;;;1.30;;
68921;SDS011;55959;51.244;5.724;2023-06-14T09:11:12;2.92;;;1.73;;
68921;SDS011;55959;51.244;5.724;2023-06-14T09:13:39;1.75;;;1.65;;
68921;SDS011;55959;51.244;5.724;2023-06-14T09:16:06;1.77;;;1.55;;
68921;SDS011;55959;51.244;5.724;2023-06-14T09:18:51;1.55;;;1.25;;
68921;SDS011;55959;51.244;5.724;2023-06-14T09:21:17;1.55;;;1.45;;
68921;SDS011;55959;51.244;5.724;2023-06-14T09:23:43;1.48;;;1.38;;
68921;SDS011;55959;51.244;5.724;2023-06-14T09:26:12;2.05;;;1.30;;
68921;SDS011;55959;51.244;5.724;2023-06-14T09:28:40;1.58;;;1.45;;
68921;SDS011;55959;51.244;5.724;2023-06-14T09:31:14;1.45;;;1.35;;
68921;SDS011;55959;51.244;5.724;2023-06-14T09:33:41;1.48;;;1.15;;
68921;SDS011;55959;51.244;5.724;2023-06-14T09:36:13;1.80;;;1.30;;
68921;SDS011;55959;51.244;5.724;2023-06-14T09:38:56;2.10;;;1.40;;
68921;SDS011;55959;51.244;5.724;2023-06-14T09:41:37;1.60;;;1.40;;
68921;SDS011;55959;51.244;5.724;2023-06-14T09:44:08;1.67;;;1.30;;
68921;SDS011;55959;51.244;5.724;2023-06-14T09:46:35;2.05;;;1.25;;
68921;SDS011;55959;51.244;5.724;2023-06-14T09:49:02;1.25;;;1.05;;
68921;SDS011;55959;51.244;5.724;2023-06-14T09:51:29;1.38;;;1.10;;
68921;SDS011;55959;51.244;5.724;2023-06-14T09:53:59;1.00;;;1.00;;
68921;SDS011;55959;51.244;5.724;2023-06-14T09:56:30;1.30;;;1.10;;
68921;SDS011;55959;51.244;5.724;2023-06-14T09:58:59;1.45;;;1.00;;
68921;SDS011;55959;51.244;5.724;2023-06-14T10:01:30;2.95;;;0.98;;
68921;SDS011;55959;51.244;5.724;2023-06-14T10:04:01;1.10;;;1.05;;
68921;SDS011;55959;51.244;5.724;2023-06-14T10:06:30;1.13;;;0.88;;
68921;SDS011;55959;51.244;5.724;2023-06-14T10:08:58;1.30;;;1.00;;
68921;SDS011;55959;51.244;5.724;2023-06-14T10:11:25;2.47;;;1.10;;
68921;SDS011;55959;51.244;5.724;2023-06-14T10:13:52;1.20;;;1.10;;
68921;SDS011;55959;51.244;5.724;2023-06-14T10:16:23;3.53;;;1.00;;
68921;SDS011;55959;51.244;5.724;2023-06-14T10:19:04;1.73;;;1.40;;
68921;SDS011;55959;51.244;5.724;2023-06-14T10:24:20;2.72;;;1.50;;
68921;SDS011;55959;51.244;5.724;2023-06-14T10:27:05;2.08;;;1.40;;
68921;SDS011;55959;51.244;5.724;2023-06-14T10:30:01;1.55;;;1.20;;
68921;SDS011;55959;51.244;5.724;2023-06-14T10:32:21;1.40;;;1.27;;
68921;SDS011;55959;51.244;5.724;2023-06-14T10:35:00;2.85;;;1.50;;
68921;SDS011;55959;51.244;5.724;2023-06-14T10:37:30;1.23;;;1.13;;
68921;SDS011;55959;51.244;5.724;2023-06-14T10:39:56;1.83;;;1.42;;
68921;SDS011;55959;51.244;5.724;2023-06-14T10:42:23;1.45;;;1.35;;
68921;SDS011;55959;51.244;5.724;2023-06-14T10:44:58;1.35;;;1.08;;
68921;SDS011;55959;51.244;5.724;2023-06-14T10:47:34;1.40;;;1.30;;
68921;SDS011;55959;51.244;5.724;2023-06-14T10:52:33;2.08;;;1.30;;
68921;SDS011;55959;51.244;5.724;2023-06-14T10:55:10;1.90;;;1.13;;
68921;SDS011;55959;51.244;5.724;2023-06-14T10:57:47;1.90;;;1.17;;
68921;SDS011;55959;51.244;5.724;2023-06-14T11:00:30;1.15;;;1.05;;
68921;SDS011;55959;51.244;5.724;2023-06-14T11:10:51;1.30;;;1.20;;
68921;SDS011;55959;51.244;5.724;2023-06-14T11:13:24;1.23;;;1.13;;
68921;SDS011;55959;51.244;5.724;2023-06-14T11:15:50;1.60;;;1.40;;
68921;SDS011;55959;51.244;5.724;2023-06-14T11:18:18;1.33;;;1.23;;
68921;SDS011;55959;51.244;5.724;2023-06-14T11:20:49;3.50;;;1.58;;
68921;SDS011;55959;51.244;5.724;2023-06-14T11:23:15;1.42;;;1.23;;
68921;SDS011;55959;51.244;5.724;2023-06-14T11:25:40;4.85;;;1.63;;
68921;SDS011;55959;51.244;5.724;2023-06-14T11:28:06;1.83;;;1.55;;
68921;SDS011;55959;51.244;5.724;2023-06-14T11:30:32;1.30;;;1.20;;
68921;SDS011;55959;51.244;5.724;2023-06-14T11:32:58;1.83;;;1.45;;
68921;SDS011;55959;51.244;5.724;2023-06-14T11:35:24;1.50;;;1.40;;
68921;SDS011;55959;51.244;5.724;2023-06-14T11:37:54;1.48;;;1.20;;
68921;SDS011;55959;51.244;5.724;2023-06-14T11:40:23;1.30;;;1.17;;
68921;SDS011;55959;51.244;5.724;2023-06-14T11:42:50;1.17;;;1.10;;
68921;SDS011;55959;51.244;5.724;2023-06-14T11:45:23;1.40;;;1.30;;
68921;SDS011;55959;51.244;5.724;2023-06-14T11:47:50;1.45;;;1.33;;
68921;SDS011;55959;51.244;5.724;2023-06-14T11:50:16;1.45;;;1.33;;
68921;SDS011;55959;51.244;5.724;2023-06-14T11:52:42;2.78;;;1.40;;
68921;SDS011;55959;51.244;5.724;2023-06-14T11:55:08;2.00;;;1.35;;
68921;SDS011;55959;51.244;5.724;2023-06-14T11:57:34;2.50;;;1.65;;
68921;SDS011;55959;51.244;5.724;2023-06-14T12:00:04;1.58;;;1.48;;
68921;SDS011;55959;51.244;5.724;2023-06-14T12:02:38;1.30;;;1.17;;
68921;SDS011;55959;51.244;5.724;2023-06-14T12:05:05;1.90;;;1.25;;
68921;SDS011;55959;51.244;5.724;2023-06-14T12:07:35;1.80;;;1.17;;
68921;SDS011;55959;51.244;5.724;2023-06-14T12:10:05;1.33;;;1.23;;
68921;SDS011;55959;51.244;5.724;2023-06-14T12:12:37;1.13;;;1.02;;
68921;SDS011;55959;51.244;5.724;2023-06-14T12:15:05;1.60;;;1.15;;
68921;SDS011;55959;51.244;5.724;2023-06-14T12:17:33;1.40;;;1.30;;
68921;SDS011;55959;51.244;5.724;2023-06-14T12:20:10;1.83;;;1.55;;
68921;SDS011;55959;51.244;5.724;2023-06-14T12:22:51;2.22;;;1.20;;
68921;SDS011;55959;51.244;5.724;2023-06-14T12:25:28;2.10;;;1.40;;
68921;SDS011;55959;51.244;5.724;2023-06-14T12:27:59;1.50;;;1.30;;
68921;SDS011;55959;51.244;5.724;2023-06-14T12:30:35;2.97;;;1.30;;
68921;SDS011;55959;51.244;5.724;2023-06-14T12:33:05;2.33;;;1.38;;
68921;SDS011;55959;51.244;5.724;2023-06-14T12:35:32;1.17;;;1.08;;
68921;SDS011;55959;51.244;5.724;2023-06-14T12:37:58;1.30;;;1.13;;
68921;SDS011;55959;51.244;5.724;2023-06-14T12:40:23;0.88;;;0.88;;
68921;SDS011;55959;51.244;5.724;2023-06-14T12:42:49;4.07;;;1.20;;
68921;SDS011;55959;51.244;5.724;2023-06-14T12:45:15;1.13;;;1.02;;
68921;SDS011;55959;51.244;5.724;2023-06-14T12:47:41;2.55;;;1.30;;
68921;SDS011;55959;51.244;5.724;2023-06-14T12:50:07;1.20;;;1.00;;
68921;SDS011;55959;51.244;5.724;2023-06-14T12:52:34;1.33;;;1.23;;
68921;SDS011;55959;51.244;5.724;2023-06-14T12:55:01;1.30;;;1.05;;
68921;SDS011;55959;51.244;5.724;2023-06-14T12:57:29;1.30;;;1.20;;
68921;SDS011;55959;51.244;5.724;2023-06-14T12:59:54;0.90;;;0.80;;
68921;SDS011;55959;51.244;5.724;2023-06-14T13:02:20;2.05;;;0.80;;
68921;SDS011;55959;51.244;5.724;2023-06-14T13:04:49;0.82;;;0.80;;
68921;SDS011;55959;51.244;5.724;2023-06-14T13:07:16;1.15;;;1.05;;
68921;SDS011;55959;51.244;5.724;2023-06-14T13:09:42;2.88;;;1.00;;
68921;SDS011;55959;51.244;5.724;2023-06-14T13:12:09;1.60;;;0.90;;
68921;SDS011;55959;51.244;5.724;2023-06-14T13:14:36;1.38;;;0.98;;
68921;SDS011;55959;51.244;5.724;2023-06-14T13:17:02;0.88;;;0.70;;
68921;SDS011;55959;51.244;5.724;2023-06-14T13:19:28;1.10;;;1.00;;
68921;SDS011;55959;51.244;5.724;2023-06-14T13:21:55;1.77;;;0.90;;
68921;SDS011;55959;51.244;5.724;2023-06-14T13:24:20;1.20;;;0.90;;
68921;SDS011;55959;51.244;5.724;2023-06-14T13:26:46;1.40;;;0.90;;
68921;SDS011;55959;51.244;5.724;2023-06-14T13:29:12;1.98;;;1.10;;
68921;SDS011;55959;51.244;5.724;2023-06-14T13:31:38;1.10;;;1.00;;
68921;SDS011;55959;51.244;5.724;2023-06-14T13:34:03;1.45;;;1.00;;
68921;SDS011;55959;51.244;5.724;2023-06-14T13:36:30;0.98;;;0.85;;
68921;SDS011;55959;51.244;5.724;2023-06-14T13:38:56;1.25;;;1.00;;
68921;SDS011;55959;51.244;5.724;2023-06-14T13:41:23;1.92;;;1.10;;
68921;SDS011;55959;51.244;5.724;2023-06-14T13:43:56;1.92;;;1.08;;
68921;SDS011;55959;51.244;5.724;2023-06-14T13:46:23;1.75;;;1.00;;
68921;SDS011;55959;51.244;5.724;2023-06-14T13:48:49;1.45;;;0.90;;
68921;SDS011;55959;51.244;5.724;2023-06-14T13:51:15;0.73;;;0.73;;
68921;SDS011;55959;51.244;5.724;2023-06-14T13:53:42;1.02;;;0.80;;
68921;SDS011;55959;51.244;5.724;2023-06-14T13:56:10;1.20;;;0.68;;
68921;SDS011;55959;51.244;5.724;2023-06-14T13:58:37;0.88;;;0.80;;
68921;SDS011;55959;51.244;5.724;2023-06-14T14:01:03;0.95;;;0.90;;
68921;SDS011;55959;51.244;5.724;2023-06-14T14:03:29;1.08;;;0.70;;
68921;SDS011;55959;51.244;5.724;2023-06-14T14:05:55;0.98;;;0.80;;
68921;SDS011;55959;51.244;5.724;2023-06-14T14:08:21;1.92;;;0.80;;
68921;SDS011;55959;51.244;5.724;2023-06-14T14:10:47;2.13;;;0.93;;
68921;SDS011;55959;51.244;5.724;2023-06-14T14:13:12;0.73;;;0.73;;
68921;SDS011;55959;51.244;5.724;2023-06-14T14:15:39;1.15;;;0.90;;
68921;SDS011;55959;51.244;5.724;2023-06-14T14:18:05;1.10;;;0.90;;
68921;SDS011;55959;51.244;5.724;2023-06-14T14:20:31;0.77;;;0.68;;
68921;SDS011;55959;51.244;5.724;2023-06-14T14:22:56;1.27;;;0.90;;
68921;SDS011;55959;51.244;5.724;2023-06-14T14:25:22;1.17;;;1.08;;
68921;SDS011;55959;51.244;5.724;2023-06-14T14:27:48;0.88;;;0.75;;
68921;SDS011;55959;51.244;5.724;2023-06-14T14:30:13;1.30;;;0.77;;
68921;SDS011;55959;51.244;5.724;2023-06-14T14:32:41;1.58;;;1.00;;
68921;SDS011;55959;51.244;5.724;2023-06-14T14:35:08;1.77;;;0.80;;
68921;SDS011;55959;51.244;5.724;2023-06-14T14:37:34;1.48;;;0.90;;
68921;SDS011;55959;51.244;5.724;2023-06-14T14:40:00;1.42;;;0.93;;
68921;SDS011;55959;51.244;5.724;2023-06-14T14:42:25;1.52;;;1.20;;
68921;SDS011;55959;51.244;5.724;2023-06-14T14:44:51;1.25;;;0.95;;
68921;SDS011;55959;51.244;5.724;2023-06-14T14:47:17;1.65;;;1.00;;
68921;SDS011;55959;51.244;5.724;2023-06-14T14:49:43;2.80;;;1.00;;
68921;SDS011;55959;51.244;5.724;2023-06-14T14:52:09;1.15;;;1.05;;
68921;SDS011;55959;51.244;5.724;2023-06-14T14:54:34;0.80;;;0.80;;
68921;SDS011;55959;51.244;5.724;2023-06-14T14:57:01;0.82;;;0.82;;
68921;SDS011;55959;51.244;5.724;2023-06-14T14:59:27;3.15;;;0.93;;
68921;SDS011;55959;51.244;5.724;2023-06-14T15:01:52;0.95;;;0.95;;
68921;SDS011;55959;51.244;5.724;2023-06-14T15:04:18;1.83;;;1.08;;
68921;SDS011;55959;51.244;5.724;2023-06-14T15:06:44;2.95;;;1.10;;